Time;durP1;ratioP1;P1;durP2;ratioP2;P2;SDS_P1;SDS_P2;PMS_P1;PMS_P2;Temp;Humidity;BMP_temperature;BMP_pressure;BME280_temperature;BME280_humidity;BME280_pressure;Samples;Min_cycle;Max_cycle;Signal;HPM_P1;HPM_P2
2023/08/19 00:01:05;;;;;;;5.73;5.23;;;26.20;99.90;;;;;;5041094;28;20196;-85
2023/08/19 00:03:32;;;;;;;5.70;5.20;;;26.20;99.90;;;;;;5046889;28;20173;-86
2023/08/19 00:06:04;;;;;;;5.43;4.80;;;26.20;99.90;;;;;;5024050;28;20278;-85
2023/08/19 00:08:30;;;;;;;5.30;4.73;;;26.30;99.90;;;;;;5006441;28;20177;-85
2023/08/19 00:10:55;;;;;;;6.40;4.50;;;26.20;99.90;;;;;;5009947;28;20189;-85
2023/08/19 00:13:21;;;;;;;5.23;4.73;;;26.30;99.90;;;;;;5012748;28;20563;-85
2023/08/19 00:15:47;;;;;;;5.47;5.00;;;26.30;99.90;;;;;;5009057;28;20216;-85
2023/08/19 00:18:13;;;;;;;5.53;4.60;;;26.30;99.90;;;;;;5007439;28;20185;-85
2023/08/19 00:20:39;;;;;;;5.23;4.73;;;26.20;99.90;;;;;;5025121;28;20481;-85
2023/08/19 00:23:04;;;;;;;5.40;4.90;;;26.20;99.90;;;;;;5008028;28;20205;-85
2023/08/19 00:25:33;;;;;;;5.13;4.70;;;26.20;99.90;;;;;;5014302;28;20626;-85
2023/08/19 00:27:59;;;;;;;5.80;4.70;;;26.20;99.90;;;;;;5026622;28;20168;-84
2023/08/19 00:30:25;;;;;;;5.10;4.57;;;26.20;99.90;;;;;;5006479;28;20178;-85
2023/08/19 00:32:51;;;;;;;4.93;4.53;;;26.20;99.90;;;;;;5008471;28;20243;-85
2023/08/19 00:35:17;;;;;;;5.40;4.90;;;26.20;99.90;;;;;;5005327;28;20201;-85
2023/08/19 00:37:43;;;;;;;5.07;4.67;;;26.20;99.90;;;;;;5024244;28;20177;-85
2023/08/19 00:40:16;;;;;;;6.23;5.07;;;26.10;99.90;;;;;;5025183;28;20273;-85
2023/08/19 00:42:42;;;;;;;5.43;4.90;;;26.20;99.90;;;;;;5022487;28;20264;-85
2023/08/19 00:45:09;;;;;;;5.10;4.57;;;26.10;99.90;;;;;;5008103;28;20323;-85
2023/08/19 00:47:36;;;;;;;5.30;4.80;;;26.10;99.90;;;;;;5007224;28;20249;-85
2023/08/19 00:50:08;;;;;;;5.37;4.73;;;26.10;99.90;;;;;;5013119;28;20177;-85
2023/08/19 00:52:36;;;;;;;5.20;4.80;;;26.10;99.90;;;;;;5011989;28;20189;-85
2023/08/19 00:55:04;;;;;;;4.63;4.23;;;26.10;99.90;;;;;;5005494;28;20181;-85
2023/08/19 00:57:31;;;;;;;5.30;4.80;;;26.10;99.90;;;;;;5007390;28;20291;-85
2023/08/19 00:59:56;;;;;;;5.40;4.90;;;26.10;99.90;;;;;;5023321;28;20185;-85
2023/08/19 01:02:23;;;;;;;5.60;4.70;;;26.10;99.90;;;;;;5026445;28;20456;-85
2023/08/19 01:04:48;;;;;;;5.40;4.90;;;26.10;99.90;;;;;;5021078;28;20243;-85
2023/08/19 01:07:34;;;;;;;5.13;4.63;;;26.10;99.90;;;;;;5021689;28;20235;-85
2023/08/19 01:10:03;;;;;;;5.07;4.57;;;26.00;99.90;;;;;;5018300;28;20213;-85
2023/08/19 01:12:39;;;;;;;5.87;4.90;;;26.10;99.90;;;;;;5022341;28;20289;-84
2023/08/19 01:15:11;;;;;;;5.07;4.67;;;26.10;99.90;;;;;;5006263;28;20283;-85
2023/08/19 01:17:37;;;;;;;5.70;4.63;;;26.10;99.90;;;;;;5023291;28;20184;-85
2023/08/19 01:20:05;;;;;;;5.53;4.60;;;26.00;99.90;;;;;;5003196;28;20556;-85
2023/08/19 01:22:54;;;;;;;5.63;4.63;;;26.00;99.90;;;;;;5003180;28;20181;-85
2023/08/19 01:25:21;;;;;;;4.83;4.43;;;26.00;99.90;;;;;;5005236;28;20624;-85
2023/08/19 01:27:47;;;;;;;5.17;4.67;;;26.00;99.90;;;;;;5004058;28;20178;-85
2023/08/19 01:30:14;;;;;;;4.87;4.47;;;26.00;99.90;;;;;;5006371;28;20189;-85
2023/08/19 01:32:41;;;;;;;5.20;4.70;;;26.00;99.90;;;;;;5007593;28;20208;-85
2023/08/19 01:35:08;;;;;;;4.70;4.30;;;26.00;99.90;;;;;;5003705;28;20380;-85
2023/08/19 01:38:03;;;;;;;5.13;4.67;;;26.00;99.90;;;;;;5023371;28;20195;-85
2023/08/19 01:40:30;;;;;;;4.80;4.40;;;26.00;99.90;;;;;;5022295;28;20185;-85
2023/08/19 01:42:58;;;;;;;4.80;4.40;;;26.00;99.90;;;;;;5022668;28;20185;-85
2023/08/19 01:45:25;;;;;;;4.73;4.30;;;26.00;99.90;;;;;;5023047;28;20200;-85
2023/08/19 01:47:53;;;;;;;4.80;4.40;;;26.00;99.90;;;;;;5007791;28;20262;-85
2023/08/19 01:50:19;;;;;;;5.00;4.60;;;26.00;99.90;;;;;;5021379;28;20196;-85
2023/08/19 01:52:45;;;;;;;5.10;4.60;;;26.00;99.90;;;;;;5007848;28;20578;-85
2023/08/19 01:55:11;;;;;;;4.87;4.47;;;26.00;99.90;;;;;;5006424;28;20350;-85
2023/08/19 01:57:36;;;;;;;4.90;4.50;;;26.00;99.90;;;;;;5007925;28;20380;-85
2023/08/19 02:00:07;;;;;;;5.00;4.50;;;25.90;99.90;;;;;;5006929;28;20177;-85
2023/08/19 02:02:32;;;;;;;4.60;4.20;;;25.90;99.90;;;;;;5023217;28;20173;-85
2023/08/19 02:04:58;;;;;;;4.97;4.47;;;25.90;99.90;;;;;;5007876;28;20219;-85
2023/08/19 02:07:24;;;;;;;5.03;4.53;;;25.90;99.90;;;;;;5004824;28;20249;-85
2023/08/19 02:09:49;;;;;;;4.90;4.40;;;25.90;99.90;;;;;;5014113;28;20189;-85
2023/08/19 02:12:15;;;;;;;4.57;4.17;;;25.90;99.90;;;;;;5005862;28;20209;-85
2023/08/19 02:14:41;;;;;;;4.90;4.40;;;25.90;99.90;;;;;;5022480;28;20173;-85
2023/08/19 02:17:07;;;;;;;4.77;4.37;;;25.90;99.90;;;;;;5006790;28;20185;-85
2023/08/19 02:19:32;;;;;;;4.63;4.23;;;25.90;99.90;;;;;;5004673;28;20189;-85
2023/08/19 02:21:58;;;;;;;4.33;3.97;;;25.90;99.90;;;;;;5024540;28;20185;-85
2023/08/19 02:24:25;;;;;;;5.33;4.83;;;25.90;99.90;;;;;;5005375;28;20185;-85
2023/08/19 02:26:50;;;;;;;4.90;4.50;;;25.90;99.90;;;;;;5007465;28;20520;-85
2023/08/19 02:29:16;;;;;;;5.03;4.53;;;25.80;99.90;;;;;;5003928;28;20193;-85
2023/08/19 02:31:43;;;;;;;4.60;4.20;;;25.90;99.90;;;;;;5004977;28;20305;-85
2023/08/19 02:34:08;;;;;;;4.70;4.30;;;25.90;99.90;;;;;;5005280;28;20197;-85
2023/08/19 02:36:34;;;;;;;4.93;4.43;;;25.80;99.90;;;;;;5007141;28;20185;-85
2023/08/19 02:38:59;;;;;;;4.70;4.30;;;25.80;99.90;;;;;;5005074;28;20181;-85
2023/08/19 02:41:25;;;;;;;4.47;4.17;;;25.80;99.90;;;;;;5004715;28;20192;-85
2023/08/19 02:43:51;;;;;;;4.27;3.90;;;25.80;99.90;;;;;;5008443;28;20191;-85
2023/08/19 02:46:16;;;;;;;5.70;4.70;;;25.80;99.90;;;;;;5022628;28;20290;-85
2023/08/19 02:48:42;;;;;;;4.50;4.10;;;25.90;99.90;;;;;;5006314;28;20349;-85
2023/08/19 02:51:08;;;;;;;4.97;4.50;;;25.90;99.90;;;;;;5006890;28;20192;-86
2023/08/19 02:53:33;;;;;;;4.23;3.93;;;25.90;99.90;;;;;;5008195;28;20185;-86
2023/08/19 02:55:59;;;;;;;4.70;4.20;;;25.90;99.90;;;;;;5026760;28;20243;-86
2023/08/19 02:58:25;;;;;;;4.83;4.40;;;25.80;99.90;;;;;;5008377;28;20192;-86
2023/08/19 03:00:51;;;;;;;4.63;4.13;;;25.80;99.90;;;;;;5021479;28;20251;-86
2023/08/19 03:03:17;;;;;;;4.77;4.30;;;25.80;99.90;;;;;;5005296;28;20419;-85
2023/08/19 03:05:43;;;;;;;4.80;4.07;;;25.90;99.90;;;;;;5011129;28;20205;-85
2023/08/19 03:08:10;;;;;;;4.60;4.20;;;25.80;99.90;;;;;;5023308;28;20170;-85
2023/08/19 03:10:40;;;;;;;4.50;4.10;;;25.80;99.90;;;;;;5006217;28;20589;-85
2023/08/19 03:13:07;;;;;;;4.70;4.30;;;25.80;99.90;;;;;;5005264;28;20421;-85
2023/08/19 03:15:35;;;;;;;4.00;3.70;;;25.80;99.90;;;;;;5012201;28;20381;-85
2023/08/19 03:18:01;;;;;;;4.50;4.10;;;25.80;99.90;;;;;;5009555;28;20285;-86
2023/08/19 03:20:27;;;;;;;4.20;3.80;;;25.80;99.90;;;;;;5008314;28;20242;-86
2023/08/19 03:22:53;;;;;;;4.10;3.70;;;25.80;99.90;;;;;;5006886;28;20185;-86
2023/08/19 03:25:19;;;;;;;4.53;4.13;;;25.80;99.90;;;;;;5022452;28;20581;-86
2023/08/19 03:27:44;;;;;;;4.40;4.00;;;25.80;99.90;;;;;;5007536;28;20244;-86
2023/08/19 03:30:11;;;;;;;3.93;3.63;;;25.80;99.90;;;;;;5009065;28;20176;-85
2023/08/19 03:32:37;;;;;;;4.53;4.13;;;25.80;99.90;;;;;;5007164;28;20414;-86
2023/08/19 03:35:02;;;;;;;4.57;4.17;;;25.80;99.90;;;;;;5026964;28;20287;-86
2023/08/19 03:37:28;;;;;;;4.30;3.90;;;25.80;99.90;;;;;;5012857;28;20185;-86
2023/08/19 03:39:54;;;;;;;4.50;4.10;;;25.80;99.90;;;;;;5004726;28;20662;-86
2023/08/19 03:42:20;;;;;;;4.33;3.93;;;25.80;99.90;;;;;;5029493;28;20192;-85
2023/08/19 03:44:46;;;;;;;4.40;4.00;;;25.80;99.90;;;;;;5007990;28;20193;-85
2023/08/19 03:47:12;;;;;;;4.00;3.70;;;25.80;99.90;;;;;;5008685;28;20188;-85
2023/08/19 03:49:38;;;;;;;4.40;4.00;;;25.80;99.90;;;;;;5003563;28;20177;-85
2023/08/19 03:52:08;;;;;;;4.20;3.73;;;25.80;99.90;;;;;;5006113;28;20449;-86
2023/08/19 03:54:34;;;;;;;4.23;3.93;;;25.70;99.90;;;;;;5005034;28;20411;-86
2023/08/19 03:57:00;;;;;;;4.00;3.70;;;25.80;99.90;;;;;;5005534;28;20188;-86
2023/08/19 03:59:25;;;;;;;4.30;3.90;;;25.70;99.90;;;;;;5004716;28;20189;-86
2023/08/19 04:01:52;;;;;;;4.60;4.20;;;25.70;99.90;;;;;;5026565;28;20431;-86
2023/08/19 04:04:18;;;;;;;4.00;3.70;;;25.70;99.90;;;;;;5005928;28;20192;-86
2023/08/19 04:06:43;;;;;;;4.00;3.60;;;25.70;99.90;;;;;;5005380;28;20205;-86
2023/08/19 04:09:09;;;;;;;3.80;3.50;;;25.80;99.90;;;;;;5007524;28;20184;-85
2023/08/19 04:11:37;;;;;;;4.30;3.90;;;25.70;99.90;;;;;;5021482;28;20185;-85
2023/08/19 04:14:03;;;;;;;4.00;3.70;;;25.70;99.90;;;;;;5024506;28;20209;-86
2023/08/19 04:16:29;;;;;;;4.30;3.90;;;25.70;99.90;;;;;;5001061;28;20286;-86
2023/08/19 04:18:54;;;;;;;4.00;3.60;;;25.70;99.90;;;;;;5003922;28;20251;-86
2023/08/19 04:21:20;;;;;;;4.00;3.70;;;25.70;99.90;;;;;;5022230;28;20189;-85
2023/08/19 04:23:46;;;;;;;3.87;3.57;;;25.70;99.90;;;;;;5025228;28;20282;-86
2023/08/19 04:26:11;;;;;;;3.90;3.60;;;25.70;99.90;;;;;;5021029;28;20622;-86
2023/08/19 04:28:37;;;;;;;4.47;3.80;;;25.70;99.90;;;;;;5023526;28;20325;-86
2023/08/19 04:31:07;;;;;;;4.20;3.80;;;25.70;99.90;;;;;;5007458;28;20281;-85
2023/08/19 04:33:34;;;;;;;5.03;3.57;;;25.70;99.90;;;;;;5010286;28;20200;-86
2023/08/19 04:36:00;;;;;;;3.50;3.20;;;25.70;99.90;;;;;;5027529;28;20574;-86
2023/08/19 04:38:26;;;;;;;3.67;3.37;;;25.70;99.90;;;;;;5007858;28;20260;-85
2023/08/19 04:40:52;;;;;;;3.43;3.20;;;25.70;99.90;;;;;;5007456;28;20185;-85
2023/08/19 04:43:21;;;;;;;3.90;3.33;;;25.70;99.90;;;;;;5024815;28;20182;-85
2023/08/19 04:45:47;;;;;;;3.40;3.10;;;25.60;99.90;;;;;;5022951;28;20201;-85
2023/08/19 04:48:13;;;;;;;3.70;3.40;;;25.70;99.90;;;;;;5008456;28;20184;-86
2023/08/19 04:50:39;;;;;;;3.50;3.20;;;25.70;99.90;;;;;;5004944;28;20177;-85
2023/08/19 04:53:05;;;;;;;3.73;3.43;;;25.60;99.90;;;;;;5009102;28;20177;-86
2023/08/19 04:55:30;;;;;;;3.67;3.37;;;25.60;99.90;;;;;;5021912;28;20192;-86
2023/08/19 04:57:56;;;;;;;3.77;3.47;;;25.60;99.90;;;;;;5007060;28;20224;-86
2023/08/19 05:00:22;;;;;;;3.57;3.27;;;25.60;99.90;;;;;;5006753;28;20184;-86
2023/08/19 05:02:49;;;;;;;3.90;3.60;;;25.60;99.90;;;;;;5008416;28;20185;-86
2023/08/19 05:05:15;;;;;;;3.77;3.47;;;25.60;99.90;;;;;;5022267;28;20272;-86
2023/08/19 05:07:40;;;;;;;3.70;3.40;;;25.60;99.90;;;;;;5008916;28;20220;-85
2023/08/19 05:10:08;;;;;;;3.40;3.10;;;25.60;99.90;;;;;;5022786;28;20272;-85
2023/08/19 05:12:35;;;;;;;3.87;3.57;;;25.60;99.90;;;;;;5024391;28;20684;-86
2023/08/19 05:15:00;;;;;;;3.70;3.40;;;25.60;99.90;;;;;;5023975;28;20181;-86
2023/08/19 05:17:26;;;;;;;3.60;3.30;;;25.60;99.90;;;;;;5004787;28;20478;-86
2023/08/19 05:19:54;;;;;;;3.50;3.20;;;25.70;99.90;;;;;;5005118;28;20555;-86
2023/08/19 05:22:20;;;;;;;3.53;3.27;;;25.70;99.90;;;;;;5022971;28;20174;-86
2023/08/19 05:24:46;;;;;;;3.83;3.50;;;25.80;99.90;;;;;;5016245;28;20477;-86
2023/08/19 05:27:12;;;;;;;3.47;3.20;;;25.80;99.90;;;;;;5004643;28;20208;-86
2023/08/19 05:29:37;;;;;;;3.60;3.30;;;25.80;99.90;;;;;;5007499;28;20559;-86
2023/08/19 05:32:04;;;;;;;3.50;3.20;;;25.80;99.90;;;;;;5036010;28;20215;-86
2023/08/19 05:34:30;;;;;;;3.60;3.30;;;25.90;99.90;;;;;;5032739;28;20192;-86
2023/08/19 05:36:56;;;;;;;3.13;2.93;;;25.90;99.90;;;;;;5024577;28;20401;-86
2023/08/19 05:39:21;;;;;;;3.10;2.90;;;25.90;99.90;;;;;;5008350;28;20257;-86
2023/08/19 05:41:47;;;;;;;3.50;3.20;;;25.90;99.90;;;;;;5003954;28;20184;-86
2023/08/19 05:44:13;;;;;;;3.83;3.50;;;25.90;99.90;;;;;;5009106;28;20181;-86
2023/08/19 05:46:38;;;;;;;3.47;3.17;;;25.90;99.90;;;;;;4999636;28;20319;-86
2023/08/19 05:49:04;;;;;;;3.77;3.47;;;25.90;99.90;;;;;;5024330;28;20181;-86
2023/08/19 05:51:30;;;;;;;3.63;3.33;;;25.90;99.90;;;;;;5022283;28;20181;-87
2023/08/19 05:54:00;;;;;;;3.37;3.07;;;25.90;99.90;;;;;;5024568;28;20177;-86
2023/08/19 05:56:25;;;;;;;3.40;3.10;;;25.90;99.90;;;;;;5020007;28;20200;-86
2023/08/19 05:58:51;;;;;;;3.40;3.10;;;25.90;99.90;;;;;;5004694;28;20180;-86
2023/08/19 06:01:17;;;;;;;3.30;2.90;;;26.00;99.90;;;;;;5020322;28;20188;-86
2023/08/19 06:03:43;;;;;;;3.23;3.00;;;26.00;99.90;;;;;;5002265;28;20297;-86
2023/08/19 06:06:08;;;;;;;3.30;3.00;;;26.00;99.90;;;;;;5000376;28;20204;-86
2023/08/19 06:08:35;;;;;;;3.27;3.07;;;26.00;99.90;;;;;;5004793;28;20187;-86
2023/08/19 06:11:04;;;;;;;3.27;2.97;;;25.90;99.90;;;;;;5007238;28;20185;-86
2023/08/19 06:13:31;;;;;;;3.17;2.87;;;25.90;99.90;;;;;;5024515;28;20467;-86
2023/08/19 06:15:57;;;;;;;3.03;2.80;;;25.90;99.90;;;;;;5013110;28;20188;-86
2023/08/19 06:18:24;;;;;;;3.43;3.13;;;25.90;99.90;;;;;;5022674;28;20181;-86
2023/08/19 06:20:50;;;;;;;3.40;3.10;;;25.90;99.90;;;;;;5021740;28;20559;-86
2023/08/19 06:23:18;;;;;;;3.13;2.83;;;25.90;99.90;;;;;;5006156;28;20184;-86
2023/08/19 06:25:50;;;;;;;3.30;3.00;;;25.90;99.90;;;;;;5018676;28;20212;-86
2023/08/19 06:28:23;;;;;;;3.43;3.13;;;26.00;99.90;;;;;;5024590;28;20180;-86
2023/08/19 06:30:49;;;;;;;3.40;3.10;;;26.00;99.90;;;;;;5019171;28;20368;-86
2023/08/19 06:33:16;;;;;;;3.27;3.00;;;26.00;99.90;;;;;;5013149;28;20204;-86
2023/08/19 06:35:49;;;;;;;3.17;2.93;;;26.00;99.90;;;;;;5027220;28;20280;-86
2023/08/19 06:38:26;;;;;;;3.03;2.80;;;25.90;99.90;;;;;;5003120;28;20748;-86
2023/08/19 06:41:12;;;;;;;3.03;2.80;;;26.00;99.90;;;;;;5024164;28;20172;-86
2023/08/19 06:43:38;;;;;;;3.10;2.90;;;26.00;99.90;;;;;;5024493;28;20380;-86
2023/08/19 06:46:05;;;;;;;3.30;3.00;;;26.10;99.90;;;;;;5022154;28;20571;-86
2023/08/19 06:48:32;;;;;;;3.07;2.80;;;26.10;99.90;;;;;;5001904;28;20213;-86
2023/08/19 06:51:00;;;;;;;3.37;3.07;;;26.10;99.90;;;;;;5002172;28;20272;-86
2023/08/19 06:53:25;;;;;;;3.70;3.40;;;26.10;99.90;;;;;;5006325;28;20178;-86
2023/08/19 06:56:16;;;;;;;2.90;2.70;;;26.20;99.90;;;;;;5013068;28;20192;-86
2023/08/19 06:58:51;;;;;;;3.05;2.75;;;26.20;99.90;;;;;;5026601;28;20178;-86
2023/08/19 07:01:26;;;;;;;2.90;2.70;;;26.20;99.90;;;;;;5024331;28;20184;-86
2023/08/19 07:03:53;;;;;;;3.47;2.90;;;26.20;99.90;;;;;;5006549;28;20275;-86
2023/08/19 07:06:22;;;;;;;3.17;2.87;;;26.30;99.90;;;;;;5005169;28;20209;-86
2023/08/19 07:08:48;;;;;;;3.08;2.78;;;26.20;99.90;;;;;;5009381;28;20381;-87
2023/08/19 07:11:15;;;;;;;3.27;2.97;;;26.20;99.90;;;;;;5006837;28;20571;-86
2023/08/19 07:13:41;;;;;;;3.20;2.90;;;26.20;99.90;;;;;;5008840;28;20461;-86
2023/08/19 07:16:10;;;;;;;3.13;2.83;;;26.30;99.90;;;;;;5006782;28;20431;-86
2023/08/19 07:18:41;;;;;;;3.20;2.90;;;26.20;99.90;;;;;;5030228;28;20594;-86
2023/08/19 07:21:10;;;;;;;3.28;2.88;;;26.20;99.90;;;;;;5024895;28;20173;-86
2023/08/19 07:23:39;;;;;;;2.92;2.63;;;26.30;99.90;;;;;;5005164;28;20188;-86
2023/08/19 07:26:06;;;;;;;3.37;3.07;;;26.40;99.90;;;;;;5006317;28;20235;-86
2023/08/19 07:28:32;;;;;;;2.77;2.57;;;26.40;99.90;;;;;;5007011;28;20181;-85
2023/08/19 07:30:58;;;;;;;3.10;2.90;;;26.30;99.90;;;;;;5024564;28;20200;-86
2023/08/19 07:33:24;;;;;;;3.60;2.77;;;26.30;99.90;;;;;;5005544;28;20496;-86
2023/08/19 07:35:50;;;;;;;4.00;2.83;;;26.30;99.90;;;;;;5001963;28;20485;-86
2023/08/19 07:38:16;;;;;;;3.00;2.70;;;26.40;99.90;;;;;;5004405;28;20188;-86
2023/08/19 07:40:41;;;;;;;3.17;2.87;;;26.40;99.90;;;;;;5003402;28;20184;-86
2023/08/19 07:43:07;;;;;;;2.95;2.75;;;26.40;99.90;;;;;;5004096;28;20298;-86
2023/08/19 07:45:34;;;;;;;3.53;2.70;;;26.40;99.90;;;;;;5007543;28;20223;-86
2023/08/19 07:47:59;;;;;;;3.10;2.80;;;26.40;99.90;;;;;;5003875;28;20182;-86
2023/08/19 07:50:26;;;;;;;2.80;2.60;;;26.40;99.90;;;;;;5008011;28;20254;-86
2023/08/19 07:52:52;;;;;;;3.03;2.57;;;26.40;99.90;;;;;;5021913;28;20174;-86
2023/08/19 07:55:21;;;;;;;4.95;2.50;;;26.40;99.90;;;;;;5005597;28;20200;-86
2023/08/19 07:57:46;;;;;;;2.60;2.40;;;26.40;99.90;;;;;;5005282;28;20185;-86
2023/08/19 08:00:12;;;;;;;2.90;2.53;;;26.40;99.90;;;;;;5004425;28;20204;-86
2023/08/19 08:02:38;;;;;;;5.50;2.80;;;26.40;99.90;;;;;;5026476;28;20189;-87
2023/08/19 08:05:04;;;;;;;3.87;2.77;;;26.40;99.90;;;;;;5013303;28;20204;-87
2023/08/19 08:07:30;;;;;;;3.70;2.72;;;26.40;99.90;;;;;;5018335;28;20185;-85
2023/08/19 08:09:55;;;;;;;2.80;2.60;;;26.40;99.90;;;;;;5010157;28;20181;-86
2023/08/19 08:12:21;;;;;;;2.60;2.40;;;26.50;99.90;;;;;;5012322;28;20181;-85
2023/08/19 08:14:47;;;;;;;2.90;2.60;;;26.50;99.90;;;;;;5007920;28;20189;-85
2023/08/19 08:17:12;;;;;;;2.73;2.53;;;26.50;99.90;;;;;;5003372;28;20448;-86
2023/08/19 08:19:38;;;;;;;3.40;2.50;;;26.50;99.90;;;;;;5004202;28;20305;-85
2023/08/19 08:22:05;;;;;;;2.80;2.60;;;26.50;99.90;;;;;;5030259;28;20176;-85
2023/08/19 08:24:31;;;;;;;3.10;2.67;;;26.50;99.90;;;;;;5018898;28;20180;-87
2023/08/19 08:26:57;;;;;;;3.10;2.77;;;26.60;99.90;;;;;;5027616;28;20243;-86
2023/08/19 08:29:24;;;;;;;3.20;2.80;;;26.60;99.90;;;;;;5003904;28;20189;-85
2023/08/19 08:31:50;;;;;;;3.17;2.88;;;26.60;99.90;;;;;;5008068;28;20530;-85
2023/08/19 08:34:15;;;;;;;2.60;2.40;;;26.60;99.90;;;;;;5008922;28;20399;-85
2023/08/19 08:36:41;;;;;;;2.50;2.30;;;26.60;99.90;;;;;;5025949;28;20377;-86
2023/08/19 08:39:07;;;;;;;3.10;2.80;;;26.60;99.90;;;;;;5006296;28;20539;-86
2023/08/19 08:41:38;;;;;;;2.40;2.20;;;26.70;99.90;;;;;;5021489;28;20185;-86
2023/08/19 08:44:06;;;;;;;2.80;2.60;;;26.70;99.90;;;;;;5007097;28;20190;-86
2023/08/19 08:46:36;;;;;;;2.60;2.40;;;26.70;99.90;;;;;;5022773;28;20293;-86
2023/08/19 08:49:05;;;;;;;2.30;2.10;;;26.70;99.90;;;;;;5025516;28;20458;-86
2023/08/19 08:51:30;;;;;;;3.03;2.30;;;26.70;99.90;;;;;;5010191;28;20161;-87
2023/08/19 08:53:56;;;;;;;2.58;2.38;;;26.80;99.90;;;;;;5027116;28;20181;-86
2023/08/19 08:56:23;;;;;;;2.60;2.40;;;26.90;99.90;;;;;;5005038;28;20240;-85
2023/08/19 08:58:49;;;;;;;3.13;2.40;;;27.00;99.90;;;;;;5004613;28;20412;-85
2023/08/19 09:01:17;;;;;;;2.50;2.30;;;27.00;99.90;;;;;;5003139;28;20470;-85
2023/08/19 09:03:45;;;;;;;2.85;2.20;;;27.20;99.90;;;;;;5001757;28;20481;-86
2023/08/19 09:06:15;;;;;;;2.42;2.22;;;27.30;99.90;;;;;;5025200;28;20722;-86
2023/08/19 09:09:02;;;;;;;3.53;2.80;;;27.30;99.90;;;;;;5018366;28;20263;-85
2023/08/19 09:11:42;;;;;;;3.55;2.38;;;27.40;99.90;;;;;;5019287;28;20263;-86
2023/08/19 09:14:33;;;;;;;2.85;2.30;;;27.50;99.90;;;;;;5026644;28;20169;-86
2023/08/19 09:16:59;;;;;;;2.67;2.47;;;27.50;99.90;;;;;;5005749;28;20493;-85
2023/08/19 09:19:25;;;;;;;3.13;2.30;;;27.40;99.90;;;;;;5008540;28;20186;-86
2023/08/19 09:21:51;;;;;;;2.92;2.50;;;27.40;99.90;;;;;;5016188;28;20181;-86
2023/08/19 09:24:26;;;;;;;2.40;2.20;;;27.40;99.90;;;;;;5016928;28;20229;-86
2023/08/19 09:26:56;;;;;;;3.10;2.33;;;27.50;99.90;;;;;;5044461;28;20358;-85
2023/08/19 09:29:23;;;;;;;2.45;2.25;;;27.50;99.90;;;;;;5009692;28;20280;-85
2023/08/19 09:31:53;;;;;;;2.38;2.20;;;27.50;99.90;;;;;;5009260;28;20177;-85
2023/08/19 09:34:19;;;;;;;2.50;2.30;;;27.50;99.90;;;;;;5008936;28;20287;-85
2023/08/19 09:36:45;;;;;;;2.47;2.28;;;27.60;99.90;;;;;;5002904;28;20319;-85
2023/08/19 09:39:11;;;;;;;2.55;2.35;;;27.60;99.90;;;;;;4999401;28;20271;-86
2023/08/19 09:41:38;;;;;;;2.25;2.15;;;27.60;99.90;;;;;;5001891;28;20401;-85
2023/08/19 09:44:14;;;;;;;2.22;2.03;;;27.50;99.90;;;;;;5011139;28;20178;-85
2023/08/19 09:46:42;;;;;;;2.60;2.40;;;27.50;99.90;;;;;;5028161;28;20216;-85
2023/08/19 09:49:09;;;;;;;2.50;2.30;;;27.60;99.90;;;;;;5018693;28;20469;-85
2023/08/19 09:51:35;;;;;;;2.65;2.45;;;27.60;99.90;;;;;;5005420;28;20185;-85
2023/08/19 09:54:11;;;;;;;2.15;2.05;;;27.60;99.90;;;;;;5016713;28;20177;-85
2023/08/19 09:56:37;;;;;;;2.40;2.20;;;27.70;99.90;;;;;;5017130;28;20330;-85
2023/08/19 09:59:03;;;;;;;2.42;2.22;;;27.70;99.90;;;;;;5017991;28;20187;-85
2023/08/19 10:01:28;;;;;;;2.53;2.33;;;27.80;99.90;;;;;;5001343;28;20181;-85
2023/08/19 10:03:54;;;;;;;2.33;2.13;;;27.80;99.90;;;;;;5008114;28;20323;-85
2023/08/19 10:06:26;;;;;;;2.45;2.20;;;27.70;99.90;;;;;;4994306;28;20300;-85
2023/08/19 10:09:04;;;;;;;2.35;2.15;;;27.70;99.90;;;;;;5011769;28;20188;-85
2023/08/19 10:11:31;;;;;;;2.92;2.10;;;27.80;99.90;;;;;;4995634;28;20177;-85
2023/08/19 10:14:04;;;;;;;2.38;2.17;;;27.80;99.90;;;;;;4992669;28;20178;-85
2023/08/19 10:16:38;;;;;;;2.15;2.00;;;27.80;99.90;;;;;;5014562;28;20180;-85
2023/08/19 10:19:05;;;;;;;2.50;2.30;;;27.90;99.90;;;;;;5017699;28;20184;-85
2023/08/19 10:21:33;;;;;;;2.28;2.08;;;27.90;99.90;;;;;;5004764;28;20185;-85
2023/08/19 10:23:59;;;;;;;2.50;2.30;;;28.00;99.90;;;;;;5016573;28;20185;-85
2023/08/19 10:26:26;;;;;;;2.42;2.05;;;28.00;99.90;;;;;;5020193;28;20472;-85
2023/08/19 10:29:08;;;;;;;3.55;2.45;;;28.10;99.90;;;;;;5001541;28;20182;-85
2023/08/19 10:31:35;;;;;;;2.45;2.20;;;28.10;99.90;;;;;;5012863;28;20200;-85
2023/08/19 10:34:19;;;;;;;2.30;2.10;;;28.20;99.90;;;;;;5001957;28;20291;-85
2023/08/19 10:37:05;;;;;;;2.45;2.00;;;28.20;99.90;;;;;;5024014;28;20255;-85
2023/08/19 10:39:31;;;;;;;2.47;2.28;;;28.20;99.90;;;;;;5008999;28;20277;-85
2023/08/19 10:41:57;;;;;;;2.50;2.30;;;28.30;99.90;;;;;;5003016;28;20243;-85
2023/08/19 10:44:31;;;;;;;2.25;2.05;;;28.30;99.90;;;;;;5005970;28;20181;-85
2023/08/19 10:47:14;;;;;;;2.28;2.08;;;28.40;99.90;;;;;;5019110;28;20323;-85
2023/08/19 10:49:40;;;;;;;2.40;2.20;;;28.50;99.90;;;;;;4999085;28;20174;-85
2023/08/19 10:52:36;;;;;;;2.30;2.10;;;28.50;99.90;;;;;;5004840;28;20181;-85
2023/08/19 10:55:05;;;;;;;2.58;2.38;;;28.60;99.90;;;;;;5008439;28;20189;-85
2023/08/19 10:57:31;;;;;;;2.33;2.13;;;28.70;99.90;;;;;;5005833;28;20276;-85
2023/08/19 11:00:05;;;;;;;2.38;2.17;;;28.80;99.90;;;;;;5003882;28;20426;-85
2023/08/19 11:02:31;;;;;;;2.10;2.00;;;28.90;99.90;;;;;;5004772;28;20558;-85
2023/08/19 11:04:58;;;;;;;2.50;2.30;;;28.80;99.90;;;;;;5021562;28;20177;-85
2023/08/19 11:07:25;;;;;;;2.53;2.33;;;28.80;99.90;;;;;;5019149;28;20177;-85
2023/08/19 11:09:56;;;;;;;2.25;2.15;;;28.90;99.90;;;;;;5004278;28;20622;-85
2023/08/19 11:12:22;;;;;;;2.17;2.08;;;28.90;99.90;;;;;;5002168;28;20177;-85
2023/08/19 11:14:50;;;;;;;3.13;2.22;;;28.90;99.90;;;;;;5000358;28;20188;-85
2023/08/19 11:17:17;;;;;;;2.17;1.98;;;28.90;99.90;;;;;;5008095;28;20561;-85
2023/08/19 11:19:44;;;;;;;2.30;2.10;;;29.00;99.90;;;;;;5012321;28;20211;-85
2023/08/19 11:22:15;;;;;;;2.28;2.08;;;29.00;99.90;;;;;;5017337;28;20185;-85
2023/08/19 11:24:41;;;;;;;2.20;2.00;;;29.00;99.90;;;;;;5007127;28;20809;-86
2023/08/19 11:27:11;;;;;;;2.50;2.30;;;29.00;99.90;;;;;;5008478;28;20602;-85
2023/08/19 11:29:40;;;;;;;2.63;2.30;;;29.00;99.90;;;;;;5028098;28;20173;-85
2023/08/19 11:32:06;;;;;;;2.50;2.08;;;29.10;99.90;;;;;;5005461;28;20769;-86
2023/08/19 11:34:32;;;;;;;2.50;2.20;;;29.10;99.90;;;;;;4999058;28;20217;-86
2023/08/19 11:36:58;;;;;;;2.60;2.40;;;29.20;99.90;;;;;;5003799;28;20402;-86
2023/08/19 11:39:32;;;;;;;2.30;2.10;;;29.20;99.90;;;;;;5014830;28;20181;-84
2023/08/19 11:42:02;;;;;;;2.22;2.08;;;29.20;99.90;;;;;;5005295;28;20259;-84
2023/08/19 11:44:28;;;;;;;2.63;2.35;;;29.20;99.90;;;;;;5001814;28;20280;-84
2023/08/19 11:46:58;;;;;;;2.60;2.40;;;29.20;99.90;;;;;;5015072;28;20220;-84
2023/08/19 11:49:28;;;;;;;2.30;2.10;;;29.30;99.90;;;;;;5016860;28;20451;-85
2023/08/19 11:51:54;;;;;;;2.50;2.30;;;29.20;99.90;;;;;;5020558;28;20175;-84
2023/08/19 11:54:22;;;;;;;2.50;2.30;;;29.30;99.90;;;;;;5010253;28;20177;-84
2023/08/19 11:56:52;;;;;;;2.50;2.30;;;29.20;99.90;;;;;;5003280;28;20277;-84
2023/08/19 11:59:27;;;;;;;2.60;2.40;;;29.30;99.90;;;;;;5004123;28;20185;-84
2023/08/19 12:01:52;;;;;;;2.63;2.42;;;29.30;99.90;;;;;;5022016;28;20199;-84
2023/08/19 12:04:18;;;;;;;2.60;2.40;;;29.30;99.90;;;;;;5001141;28;20181;-84
2023/08/19 12:06:46;;;;;;;2.50;2.30;;;29.30;99.90;;;;;;5020322;28;20244;-84
2023/08/19 12:09:13;;;;;;;2.30;2.10;;;29.20;99.90;;;;;;4999543;28;20402;-84
2023/08/19 12:11:41;;;;;;;2.55;2.35;;;29.20;99.90;;;;;;5003582;28;20311;-84
2023/08/19 12:14:07;;;;;;;2.60;2.40;;;29.20;99.90;;;;;;4998032;28;20181;-84
2023/08/19 12:16:33;;;;;;;2.63;2.20;;;29.20;99.90;;;;;;5001178;28;20185;-85
2023/08/19 12:18:59;;;;;;;2.50;2.30;;;29.20;99.90;;;;;;5001008;28;20182;-85
2023/08/19 12:21:25;;;;;;;3.08;2.20;;;29.20;99.90;;;;;;5019039;28;20266;-85
2023/08/19 12:23:52;;;;;;;2.10;1.90;;;29.20;99.90;;;;;;5001562;28;20332;-84
2023/08/19 12:26:17;;;;;;;2.38;2.13;;;29.20;99.90;;;;;;5002480;28;20212;-85
2023/08/19 12:28:44;;;;;;;3.25;2.22;;;29.20;99.90;;;;;;4997495;28;20174;-85
2023/08/19 12:31:10;;;;;;;2.40;2.20;;;29.20;99.90;;;;;;4998538;28;20188;-84
2023/08/19 12:33:37;;;;;;;2.50;2.30;;;29.20;99.90;;;;;;5017177;28;20197;-85
2023/08/19 12:36:03;;;;;;;2.58;2.38;;;29.30;99.90;;;;;;5000838;28;20454;-85
2023/08/19 12:38:28;;;;;;;2.63;2.10;;;29.20;99.90;;;;;;5001500;28;20203;-84
2023/08/19 12:40:54;;;;;;;2.80;2.47;;;29.30;99.90;;;;;;5002911;28;20452;-84
2023/08/19 12:43:19;;;;;;;2.30;2.10;;;29.30;99.90;;;;;;4997228;28;20186;-83
2023/08/19 12:45:46;;;;;;;2.50;2.30;;;29.30;99.90;;;;;;5018045;28;20613;-84
2023/08/19 12:48:12;;;;;;;2.92;2.42;;;29.30;99.90;;;;;;4998801;28;20182;-84
2023/08/19 12:50:38;;;;;;;2.30;2.10;;;29.30;99.90;;;;;;5008700;28;20275;-84